Wetterdaten: aktuell Montag, 21.09.2020 15:30
Datum Zeit Temp. A. BodenT.+5cm Feuchte A. Luftdruck Regen Wind Richtung Richtung Sonnenschein T Regen ET UV Solar Taupunkt chill Windben Empfang
21.09.2020 15:30 24,1 C 24,4 C 53 % 1015,0 hPa 0,0 l/m 0,0 km/h (0 Bft) O-NO 62 60 min 0 min 0,356 mm 0,8 UV-I 468 W/m 13,9 C 24,1 C 0,0 km/h (0 Bft) 100,00 %
21.09.2020 14:30 24,3 C 25,0 C 55 % 1015,2 hPa 0,0 l/m 0,0 km/h (0 Bft) S 184 60 min 0 min 0,381 mm 1,8 UV-I 561 W/m 14,7 C 24,3 C 0,0 km/h (0 Bft) 100,00 %
21.09.2020 13:30 23,4 C 24,4 C 55 % 1015,8 hPa 0,0 l/m 0,0 km/h (0 Bft) S-SO 147 60 min 0 min 0,355 mm 2,7 UV-I 603 W/m 13,8 C 23,4 C 0,0 km/h (0 Bft) 100,00 %
21.09.2020 12:30 23,0 C 25,6 C 56 % 1016,1 hPa 0,0 l/m 0,0 km/h (0 Bft) O-SO 123 60 min 0 min 0,331 mm 2,8 UV-I 603 W/m 13,7 C 23,0 C 0,0 km/h (0 Bft) 97,44 %
21.09.2020 11:30 20,8 C 21,7 C 63 % 1016,3 hPa 0,0 l/m 0,0 km/h (0 Bft) NO 49 60 min 0 min 0,254 mm 1,8 UV-I 559 W/m 13,5 C 20,8 C 0,0 km/h (0 Bft) 100,00 %
21.09.2020 10:30 18,4 C 18,9 C 74 % 1016,4 hPa 0,0 l/m 0,0 km/h (0 Bft) SW 236 60 min 0 min 0,177 mm 0,7 UV-I 457 W/m 13,7 C 18,4 C 0,0 km/h (0 Bft) 100,00 %
21.09.2020 09:30 14,4 C 13,3 C 86 % 1016,5 hPa 0,0 l/m 0,0 km/h (0 Bft) S-SW 211 60 min 0 min 0,077 mm 0,0 UV-I 325 W/m 12,1 C 14,4 C 0,0 km/h (0 Bft) 99,07 %
21.09.2020 08:30 9,9 C 10,6 C 96 % 1016,4 hPa 0,0 l/m 0,0 km/h (0 Bft) S-SW 211 30 min 0 min 0,025 mm 0,0 UV-I 165 W/m 9,3 C 9,9 C 0,0 km/h (0 Bft) 98,29 %
21.09.2020 07:30 8,6 C 8,3 C 96 % 1016,2 hPa 0,0 l/m 0,0 km/h (0 Bft) S-SW 211 5 min 0 min 0,000 mm 0,0 UV-I 25 W/m 8,0 C 8,6 C 0,0 km/h (0 Bft) 100,00 %
21.09.2020 06:30 8,7 C 8,3 C 96 % 1016,1 hPa 0,0 l/m 0,0 km/h (0 Bft) N 0 0 min 0 min 0,000 mm 0,0 UV-I 0 W/m 8,1 C 8,7 C 0,0 km/h (0 Bft) 99,12 %
21.09.2020 05:30 9,1 C 8,3 C 96 % 1016,1 hPa 0,0 l/m 0,0 km/h (0 Bft) N 0 0 min 0 min 0,000 mm 0,0 UV-I 0 W/m 8,5 C 9,1 C 0,0 km/h (0 Bft) 99,12 %
21.09.2020 04:30 9,3 C 8,9 C 95 % 1015,9 hPa 0,0 l/m 0,0 km/h (0 Bft) N 0 0 min 0 min 0,000 mm 0,0 UV-I 0 W/m 8,5 C 9,3 C 0,0 km/h (0 Bft) 100,00 %
21.09.2020 03:30 9,6 C 8,9 C 95 % 1015,8 hPa 0,0 l/m 0,0 km/h (0 Bft) N 0 0 min 0 min 0,000 mm 0,0 UV-I 0 W/m 8,8 C 9,6 C 0,0 km/h (0 Bft) 100,00 %
21.09.2020 02:30 10,0 C 9,4 C 94 % 1015,6 hPa 0,0 l/m 0,0 km/h (0 Bft) N 0 0 min 0 min 0,000 mm 0,0 UV-I 0 W/m 9,1 C 10,0 C 0,0 km/h (0 Bft) 100,00 %
21.09.2020 01:30 10,5 C 10,0 C 93 % 1015,7 hPa 0,0 l/m 0,0 km/h (0 Bft) N 0 0 min 0 min 0,000 mm 0,0 UV-I 0 W/m 9,4 C 10,5 C 0,0 km/h (0 Bft) 99,12 %
21.09.2020 00:30 11,1 C 10,6 C 91 % 1015,6 hPa 0,0 l/m 0,0 km/h (0 Bft) N 0 0 min 0 min 0,000 mm 0,0 UV-I 0 W/m 9,7 C 11,1 C 0,0 km/h (0 Bft) 98,25 %
20.09.2020 23:30 11,7 C 11,1 C 90 % 1015,8 hPa 0,0 l/m 0,0 km/h (0 Bft) N 0 0 min 0 min 0,000 mm 0,0 UV-I 0 W/m 10,1 C 11,7 C 0,0 km/h (0 Bft) 100,00 %
20.09.2020 22:30 12,3 C 11,1 C 88 % 1015,7 hPa 0,0 l/m 0,0 km/h (0 Bft) N 0 0 min 0 min 0,000 mm 0,0 UV-I 0 W/m 10,4 C 12,3 C 0,0 km/h (0 Bft) 100,00 %
20.09.2020 21:30 13,4 C 12,2 C 84 % 1015,6 hPa 0,0 l/m 0,0 km/h (0 Bft) N 0 0 min 0 min 0,000 mm 0,0 UV-I 0 W/m 10,8 C 13,4 C 0,0 km/h (0 Bft) 100,00 %
20.09.2020 20:30 14,9 C 13,3 C 76 % 1015,3 hPa 0,0 l/m 0,0 km/h (0 Bft) N 0 0 min 0 min 0,025 mm 0,0 UV-I 0 W/m 10,7 C 14,9 C 0,0 km/h (0 Bft) 100,00 %
20.09.2020 19:30 17,2 C 15,6 C 67 % 1014,8 hPa 0,0 l/m 1,7 km/h (1 Bft) O-NO 67 0 min 0 min 0,051 mm 0,0 UV-I 0 W/m 11,0 C 17,2 C 5,1 km/h (1 Bft) 97,37 %
20.09.2020 18:30 20,6 C 18,9 C 52 % 1014,4 hPa 0,0 l/m 2,5 km/h (1 Bft) O-SO 113 35 min 0 min 0,153 mm 0,0 UV-I 49 W/m 10,4 C 20,6 C 6,8 km/h (2 Bft) 96,61 %
20.09.2020 17:30 22,4 C 21,7 C 48 % 1014,3 hPa 0,0 l/m 4,5 km/h (1 Bft) N-NO 17 60 min 0 min 0,254 mm 0,0 UV-I 206 W/m 10,8 C 22,4 C 15,2 km/h (3 Bft) 98,15 %
20.09.2020 16:30 22,8 C 22,8 C 51 % 1014,1 hPa 0,0 l/m 4,0 km/h (1 Bft) NO 56 30 min 0 min 0,330 mm 0,0 UV-I 267 W/m 12,1 C 22,8 C 8,4 km/h (2 Bft) 100,00 %
20.09.2020 16:00 23,7 C 23,3 C 49 % 1014,4 hPa 0,0 l/m 3,4 km/h (1 Bft) N 5 0 min 0 min 0,330 mm 0,0 UV-I 388 W/m 12,3 C 23,7 C 11,8 km/h (2 Bft) 100,00 %
_ Min-Zeit 07:25 07:15 18:05 17:10 - 15:30 - - - - - - - 07:25 07:25 15:30 07:15
Minimum _ 8,5 C 7,8 C 48 % 1014,1 hPa - 0,0 km/h (0 Bft) - - - - - - - 7,9 C 8,5 C 0,0 km/h (0 Bft) 66,67 %
_ Max-Zeit 15:15 14:55 08:45 10:25 15:30 16:05 - - 15:30 15:30 14:05 13:25 12:50 14:30 15:15 16:05 15:30
Maximum _ 24,7 C 25,6 C 98 % 1016,5 hPa 0,0 l/m 7,6 km/h
N-NO (2 Bft)
- - 5 min 0 min 0,381 mm 2,8 UV-I 613 W/m 14,7 C 24,7 C 16,9 km/h
N (3 Bft)
100,00 %
Durchschnitt _ 15,9 C 15,6 C 75 % 1015,5 hPa #0,0 l/m 0,7 km/h (0 Bft) N - #7:35 h #0 min. #1,956 mm 1,9 UV-I 411 W/m 11,0 C 15,9 C 2,0 km/h (1 Bft) 99,04 %